Time;durP1;ratioP1;P1;durP2;ratioP2;P2;SDS_P1;SDS_P2;PMS_P1;PMS_P2;Temp;Humidity;BMP_temperature;BMP_pressure;BME280_temperature;BME280_humidity;BME280_pressure;Samples;Min_cycle;Max_cycle;Signal;HPM_P1;HPM_P2
2023/10/28 00:00:30;;;;;;;4.45;2.80;;;;;;;10.89;70.49;97742.09;5107399;28;20063;-73
2023/10/28 00:02:57;;;;;;;5.32;3.42;;;;;;;10.91;71.20;97744.63;5107392;28;20067;-74
2023/10/28 00:05:24;;;;;;;6.65;4.25;;;;;;;10.90;71.02;97754.38;5107335;28;20048;-74
2023/10/28 00:07:51;;;;;;;4.03;3.13;;;;;;;10.92;71.12;97746.31;5107335;28;20052;-74
2023/10/28 00:10:18;;;;;;;3.13;2.20;;;;;;;10.62;71.22;97698.44;5107086;28;20040;-74
2023/10/28 00:12:44;;;;;;;3.50;2.20;;;;;;;10.86;70.92;97754.75;5106190;28;20093;-74
2023/10/28 00:15:13;;;;;;;3.50;2.88;;;;;;;10.88;71.35;97752.81;5106858;28;20123;-74
2023/10/28 00:17:40;;;;;;;4.93;3.40;;;;;;;10.10;71.61;97636.44;5107361;28;20070;-74
2023/10/28 00:20:08;;;;;;;5.40;3.20;;;;;;;10.06;71.09;97638.50;5106066;28;20040;-75
2023/10/28 00:22:35;;;;;;;4.25;2.75;;;;;;;10.85;71.29;97745.13;5106727;28;20333;-74
2023/10/28 00:25:02;;;;;;;4.20;2.85;;;;;;;10.84;71.54;97741.63;5107693;28;20111;-74
2023/10/28 00:27:30;;;;;;;3.72;2.60;;;;;;;10.84;71.78;97724.88;5105678;28;20361;-74
2023/10/28 00:29:56;;;;;;;4.72;3.17;;;;;;;10.77;71.68;97723.66;5106341;28;20201;-74
2023/10/28 00:32:25;;;;;;;3.55;2.38;;;;;;;10.60;71.26;97693.25;5105673;28;20200;-74
2023/10/28 00:34:51;;;;;;;4.32;2.40;;;;;;;10.73;71.51;97711.63;5106786;28;20043;-74
2023/10/28 00:37:18;;;;;;;3.75;2.50;;;;;;;10.72;71.22;97721.41;5106518;28;20054;-74
2023/10/28 00:39:46;;;;;;;5.13;2.88;;;;;;;10.73;71.26;97709.00;5106494;28;20204;-74
2023/10/28 00:42:16;;;;;;;2.97;2.17;;;;;;;10.72;71.26;97713.44;5106952;28;20296;-74
2023/10/28 00:44:43;;;;;;;2.75;1.90;;;;;;;10.71;70.72;97705.63;5107131;28;20044;-74
2023/10/28 00:47:10;;;;;;;3.10;1.40;;;;;;;10.78;71.42;97720.09;5106872;28;20044;-75
2023/10/28 00:49:38;;;;;;;2.35;1.50;;;;;;;10.31;71.26;97653.25;5107380;28;20251;-75
2023/10/28 00:52:07;;;;;;;3.03;1.35;;;;;;;10.84;71.08;97727.53;5105283;28;20036;-74
2023/10/28 00:54:33;;;;;;;1.90;1.40;;;;;;;10.15;70.46;97611.28;5106474;28;20048;-75
2023/10/28 00:57:00;;;;;;;2.00;1.50;;;;;;;10.81;71.50;97725.97;5105859;28;20035;-75
2023/10/28 00:59:28;;;;;;;3.30;1.98;;;;;;;10.72;70.39;97728.50;5106253;28;20039;-75
2023/10/28 01:01:55;;;;;;;2.50;1.58;;;;;;;10.66;70.96;97724.53;5106624;28;20040;-75
2023/10/28 01:04:22;;;;;;;2.72;1.63;;;;;;;10.60;70.44;97735.63;5106368;28;20063;-74
2023/10/28 01:06:50;;;;;;;2.80;1.98;;;;;;;10.71;71.70;97730.31;5105456;28;20204;-75
2023/10/28 01:09:18;;;;;;;2.72;1.60;;;;;;;10.71;70.99;97743.56;5106523;28;20050;-75
2023/10/28 01:11:46;;;;;;;2.58;1.60;;;;;;;10.47;71.27;97695.22;5105696;28;20308;-75
2023/10/28 01:14:13;;;;;;;2.85;1.90;;;;;;;10.74;71.35;97738.00;5106455;28;20298;-74
2023/10/28 01:16:40;;;;;;;2.88;1.60;;;;;;;7.64;71.04;97211.19;5105316;28;20085;-75
2023/10/28 01:19:09;;;;;;;2.25;1.40;;;;;;;10.82;71.08;97740.06;5105292;28;20036;-75
2023/10/28 01:21:40;;;;;;;2.60;1.70;;;;;;;9.95;70.90;97598.81;5105513;28;20036;-75
2023/10/28 01:24:07;;;;;;;2.78;1.50;;;;;;;10.79;71.02;97748.28;5105653;28;20044;-75
2023/10/28 01:26:36;;;;;;;2.75;1.52;;;;;;;10.77;70.36;97745.75;5106199;28;20071;-75
2023/10/28 01:29:03;;;;;;;2.58;1.63;;;;;;;10.77;71.24;97742.22;5105588;28;20301;-75
2023/10/28 01:31:30;;;;;;;2.70;1.63;;;;;;;10.74;71.04;97738.00;5105887;28;20118;-75
2023/10/28 01:33:57;;;;;;;4.07;1.65;;;;;;;10.76;70.98;97743.19;5105939;28;20093;-75
2023/10/28 01:36:23;;;;;;;2.60;1.60;;;;;;;10.71;70.88;97754.16;5105196;28;20094;-75
2023/10/28 01:38:52;;;;;;;2.92;1.50;;;;;;;10.71;71.12;97751.50;5071493;28;20051;-75
2023/10/28 01:41:19;;;;;;;2.42;1.60;;;;;;;10.71;71.17;97742.72;5106200;28;20357;-75
2023/10/28 01:43:45;;;;;;;2.78;1.60;;;;;;;10.71;71.14;97734.78;5106138;28;20291;-75
2023/10/28 01:46:12;;;;;;;2.67;1.77;;;;;;;10.66;71.30;97752.84;5105901;28;20052;-75
2023/10/28 01:48:39;;;;;;;2.95;1.70;;;;;;;10.66;71.00;97743.09;5105859;28;20039;-75
2023/10/28 01:51:06;;;;;;;2.88;1.67;;;;;;;10.31;70.60;97690.31;5105917;28;20040;-75
2023/10/28 01:53:33;;;;;;;3.22;2.10;;;;;;;10.62;71.36;97757.56;5110165;28;20050;-75
2023/10/28 01:56:01;;;;;;;2.47;1.80;;;;;;;10.59;71.80;97753.34;5109799;28;20051;-75
2023/10/28 01:58:32;;;;;;;4.20;2.30;;;;;;;10.59;71.58;97753.34;5110126;28;20047;-75
2023/10/28 02:00:59;;;;;;;3.85;2.35;;;;;;;10.64;71.30;97754.78;5108747;28;20111;-75
2023/10/28 02:03:25;;;;;;;3.22;2.20;;;;;;;10.41;71.34;97733.63;5109462;28;20036;-75
2023/10/28 02:05:52;;;;;;;2.80;1.90;;;;;;;10.60;71.21;97768.28;5108539;28;20036;-75
2023/10/28 02:08:19;;;;;;;4.47;2.08;;;;;;;10.07;71.26;97693.13;5109931;28;20056;-75
2023/10/28 02:10:46;;;;;;;2.85;1.90;;;;;;;10.62;71.57;97756.72;5108493;28;20235;-75
2023/10/28 02:13:14;;;;;;;3.70;2.10;;;;;;;10.57;71.30;97759.72;5109441;28;20050;-75
2023/10/28 02:15:42;;;;;;;3.50;1.50;;;;;;;10.23;71.41;97713.91;5109246;28;20089;-75
2023/10/28 02:18:09;;;;;;;2.58;1.63;;;;;;;10.63;71.54;97772.47;5109706;28;20097;-75
2023/10/28 02:20:36;;;;;;;2.72;1.70;;;;;;;10.67;71.42;97776.56;5109145;28;20207;-75
2023/10/28 02:23:03;;;;;;;2.70;1.75;;;;;;;9.44;70.81;97578.19;5108990;28;20046;-75
2023/10/28 02:25:30;;;;;;;3.55;2.20;;;;;;;10.59;70.84;97777.19;5108441;28;20127;-75
2023/10/28 02:27:57;;;;;;;2.88;1.65;;;;;;;10.58;71.13;97787.91;5108139;28;20098;-75
2023/10/28 02:30:25;;;;;;;3.10;2.05;;;;;;;10.58;71.09;97785.25;5108774;28;20052;-75
2023/10/28 02:32:54;;;;;;;3.67;2.00;;;;;;;9.61;70.94;97609.44;5109105;28;20044;-75
2023/10/28 02:35:21;;;;;;;2.92;1.77;;;;;;;10.63;71.15;97783.09;5109122;28;20040;-75
2023/10/28 02:37:47;;;;;;;3.05;1.75;;;;;;;10.67;71.20;97783.69;5108322;28;20054;-75
2023/10/28 02:40:14;;;;;;;3.70;1.98;;;;;;;10.58;70.99;97777.31;5108841;28;20274;-75
2023/10/28 02:42:41;;;;;;;3.42;2.13;;;;;;;10.37;70.99;97758.69;5107785;28;20032;-76
2023/10/28 02:45:09;;;;;;;4.20;2.47;;;;;;;10.44;71.01;97778.41;5108834;28;20285;-75
2023/10/28 02:47:38;;;;;;;3.92;2.60;;;;;;;10.38;71.60;97783.34;5107787;28;20044;-75
2023/10/28 02:50:05;;;;;;;3.65;2.38;;;;;;;10.31;71.40;97776.84;5108537;28;20048;-75
2023/10/28 02:52:32;;;;;;;3.63;1.98;;;;;;;10.32;71.94;97775.88;5108685;28;20089;-75
2023/10/28 02:54:58;;;;;;;4.15;2.63;;;;;;;9.66;71.56;97674.34;5142003;27;20052;-75
2023/10/28 02:57:25;;;;;;;3.58;2.20;;;;;;;9.88;71.75;97711.41;5108549;28;20048;-75
2023/10/28 02:59:52;;;;;;;3.50;2.40;;;;;;;10.26;72.09;97787.81;5108321;28;20044;-75
2023/10/28 03:02:18;;;;;;;4.30;2.97;;;;;;;10.25;72.07;97780.81;5108069;28;20062;-75
2023/10/28 03:04:46;;;;;;;3.45;2.65;;;;;;;10.19;71.75;97782.16;5107432;28;20047;-75
2023/10/28 03:07:13;;;;;;;3.33;2.22;;;;;;;10.16;72.34;97779.75;5107974;28;20048;-75
2023/10/28 03:09:41;;;;;;;3.88;2.60;;;;;;;10.17;72.20;97778.78;5107305;28;20044;-75
2023/10/28 03:12:08;;;;;;;4.45;3.33;;;;;;;10.21;72.23;97780.22;5107255;28;20040;-75
2023/10/28 03:14:34;;;;;;;4.47;2.65;;;;;;;10.21;71.97;97787.31;5107349;28;20040;-75
2023/10/28 03:17:01;;;;;;;3.28;2.30;;;;;;;10.14;72.04;97789.59;5108102;28;20052;-75
2023/10/28 03:19:28;;;;;;;3.53;2.47;;;;;;;10.17;71.95;97789.38;5108014;28;20311;-75
2023/10/28 03:21:56;;;;;;;3.35;2.00;;;;;;;10.14;72.14;97786.13;5107976;28;20341;-75
2023/10/28 03:24:23;;;;;;;3.63;1.75;;;;;;;10.10;72.42;97790.81;5108480;28;20094;-75
2023/10/28 03:26:50;;;;;;;3.55;1.85;;;;;;;10.11;72.30;97783.72;5106971;28;20127;-75
2023/10/28 03:29:17;;;;;;;2.53;1.73;;;;;;;10.08;72.91;97790.09;5107850;28;20052;-75
2023/10/28 03:31:44;;;;;;;3.05;1.80;;;;;;;10.08;72.89;97791.91;5067447;28;20053;-75
2023/10/28 03:34:10;;;;;;;2.72;1.85;;;;;;;10.03;72.82;97792.25;5067592;28;20048;-75
2023/10/28 03:36:37;;;;;;;2.78;1.92;;;;;;;9.98;73.26;97783.81;5066557;28;20288;-75
2023/10/28 03:39:05;;;;;;;4.47;2.28;;;;;;;9.95;73.35;97784.06;5067028;28;20053;-75
2023/10/28 03:41:32;;;;;;;3.13;2.20;;;;;;;6.80;73.06;97262.25;5067412;28;20056;-75
2023/10/28 03:43:59;;;;;;;4.40;2.47;;;;;;;9.53;73.51;97746.72;5067447;28;20090;-75
2023/10/28 03:46:26;;;;;;;4.30;2.45;;;;;;;9.90;73.75;97805.59;5050594;28;20041;-75
2023/10/28 03:48:53;;;;;;;3.85;2.20;;;;;;;9.87;74.29;97804.97;5066273;28;20311;-75
2023/10/28 03:51:20;;;;;;;3.00;2.10;;;;;;;9.81;73.87;97798.34;5067317;28;20188;-75
2023/10/28 03:53:47;;;;;;;3.53;2.10;;;;;;;9.50;74.12;97754.88;5066928;28;20040;-75
2023/10/28 03:56:15;;;;;;;3.10;2.13;;;;;;;9.83;74.03;97807.00;5066191;28;20201;-75
2023/10/28 03:58:42;;;;;;;3.72;2.38;;;;;;;9.77;73.81;97802.19;5066084;28;20037;-75
2023/10/28 04:01:08;;;;;;;4.47;2.92;;;;;;;9.84;73.79;97815.78;5067127;28;20064;-75
2023/10/28 04:03:35;;;;;;;4.80;2.97;;;;;;;9.87;74.05;97807.63;5067088;28;20182;-75
2023/10/28 04:06:02;;;;;;;4.63;2.22;;;;;;;9.81;74.18;97808.09;5066771;28;20041;-75
2023/10/28 04:08:28;;;;;;;2.95;2.08;;;;;;;9.85;74.26;97802.44;5067016;28;20114;-75
2023/10/28 04:10:55;;;;;;;3.17;2.00;;;;;;;9.89;73.60;97808.34;5067009;28;20095;-75
2023/10/28 04:13:23;;;;;;;4.25;1.90;;;;;;;9.87;73.65;97802.34;5066453;28;20056;-75
2023/10/28 04:15:50;;;;;;;3.10;2.35;;;;;;;9.77;73.80;97811.94;5066408;28;20045;-75
2023/10/28 04:18:17;;;;;;;3.30;1.95;;;;;;;9.83;73.75;97808.81;5065985;28;20060;-75
2023/10/28 04:20:43;;;;;;;2.70;1.98;;;;;;;9.91;73.73;97803.78;5065647;28;20094;-75
2023/10/28 04:23:10;;;;;;;3.22;1.90;;;;;;;9.82;73.37;97815.06;5065574;28;20116;-75
2023/10/28 04:25:37;;;;;;;3.40;1.85;;;;;;;9.84;73.76;97824.56;5066095;28;20185;-75
2023/10/28 04:28:04;;;;;;;5.63;2.10;;;;;;;9.85;73.48;97838.66;5066553;28;20051;-75
2023/10/28 04:30:32;;;;;;;4.00;1.85;;;;;;;9.90;73.38;97837.34;5086290;28;20135;-75
2023/10/28 04:32:59;;;;;;;2.40;1.73;;;;;;;9.98;72.96;97849.16;5105575;28;20052;-75
2023/10/28 04:35:26;;;;;;;4.38;1.80;;;;;;;10.02;72.66;97850.59;5106456;28;20047;-75
2023/10/28 04:37:53;;;;;;;3.38;2.00;;;;;;;9.99;72.44;97849.03;5106714;28;20098;-75
2023/10/28 04:40:19;;;;;;;3.10;1.63;;;;;;;8.63;72.71;97625.78;5105930;28;20043;-75
2023/10/28 04:42:47;;;;;;;2.60;1.50;;;;;;;9.97;72.84;97858.88;5106928;28;20048;-75
2023/10/28 04:45:14;;;;;;;2.30;1.60;;;;;;;9.81;72.77;97827.47;5106694;28;20177;-75
2023/10/28 04:47:42;;;;;;;3.45;2.00;;;;;;;9.79;72.67;97817.94;5106602;28;20063;-75
2023/10/28 04:50:09;;;;;;;2.63;1.60;;;;;;;9.97;72.39;97861.53;5106300;28;20318;-75
2023/10/28 04:52:36;;;;;;;2.92;1.98;;;;;;;9.94;72.61;97862.63;5106500;28;20043;-75
2023/10/28 04:55:03;;;;;;;3.95;2.00;;;;;;;9.94;72.67;97862.63;5105762;28;20044;-75
2023/10/28 04:57:31;;;;;;;4.72;1.70;;;;;;;9.98;72.97;97859.72;5106407;28;20044;-75
2023/10/28 04:59:57;;;;;;;4.30;2.58;;;;;;;9.92;72.67;97871.63;5106387;28;20046;-75
2023/10/28 05:02:24;;;;;;;3.35;1.80;;;;;;;9.96;72.89;97920.72;5106365;28;20093;-75
2023/10/28 05:04:52;;;;;;;2.70;1.60;;;;;;;9.98;73.18;97937.31;5105178;28;20040;-75
2023/10/28 05:07:19;;;;;;;2.45;1.40;;;;;;;9.95;73.05;97926.97;5105963;28;20059;-75
2023/10/28 05:09:46;;;;;;;2.20;1.42;;;;;;;9.98;72.47;97933.84;5105931;28;20250;-75
2023/10/28 05:12:13;;;;;;;2.40;1.60;;;;;;;9.99;72.66;97922.28;5106234;28;20051;-75
2023/10/28 05:14:41;;;;;;;2.55;1.70;;;;;;;9.93;72.58;97907.72;5106412;28;20230;-75
2023/10/28 05:17:07;;;;;;;2.83;1.42;;;;;;;8.52;72.44;97676.75;5122254;28;20040;-75
2023/10/28 05:19:34;;;;;;;2.47;1.73;;;;;;;9.99;72.00;97920.50;5105774;28;20044;-75
2023/10/28 05:22:03;;;;;;;3.22;1.60;;;;;;;10.00;71.92;97930.13;5105820;28;20035;-75
2023/10/28 05:24:30;;;;;;;2.65;1.70;;;;;;;10.03;71.98;97924.59;5104958;28;20081;-75
2023/10/28 05:26:58;;;;;;;2.72;1.92;;;;;;;10.00;71.81;97932.75;5088234;28;20374;-75
2023/10/28 05:29:25;;;;;;;6.28;2.03;;;;;;;10.00;71.77;97921.34;5105679;28;20058;-75
2023/10/28 05:31:56;;;;;;;2.72;1.75;;;;;;;9.97;72.02;97934.78;5105978;28;20051;-75
2023/10/28 05:34:23;;;;;;;2.65;1.70;;;;;;;9.96;71.67;97923.38;5105902;28;20148;-75
2023/10/28 05:36:50;;;;;;;4.50;1.85;;;;;;;9.95;71.37;97922.53;5105243;28;20040;-75
2023/10/28 05:39:20;;;;;;;2.55;1.60;;;;;;;9.99;71.92;97931.06;5105714;28;20051;-75
2023/10/28 05:41:47;;;;;;;3.58;1.83;;;;;;;9.99;71.90;97923.13;5106253;28;20036;-75
2023/10/28 05:44:14;;;;;;;2.50;1.60;;;;;;;9.98;72.07;97921.44;5105833;28;20036;-75
2023/10/28 05:46:41;;;;;;;2.88;1.48;;;;;;;10.01;71.90;97920.38;5105932;28;20106;-75
2023/10/28 05:49:10;;;;;;;3.40;1.58;;;;;;;10.05;72.71;97935.91;5105568;28;20051;-75
2023/10/28 05:51:36;;;;;;;2.45;1.55;;;;;;;10.02;71.99;97933.50;5104658;28;20044;-75
2023/10/28 05:54:04;;;;;;;2.63;1.83;;;;;;;9.85;72.71;97905.66;5105414;28;20048;-75
2023/10/28 05:56:32;;;;;;;3.05;1.60;;;;;;;9.80;72.72;97894.56;5105493;28;20044;-76
2023/10/28 05:59:00;;;;;;;1.83;1.40;;;;;;;10.06;72.05;97932.31;5104640;28;20036;-75
2023/10/28 06:01:27;;;;;;;4.18;1.67;;;;;;;10.09;72.51;97934.72;5104537;28;20051;-75
2023/10/28 06:03:54;;;;;;;2.35;1.52;;;;;;;10.04;73.00;97930.72;5105531;28;20063;-76
2023/10/28 06:06:21;;;;;;;3.05;1.63;;;;;;;9.91;73.10;97915.78;5105922;28;20051;-76
2023/10/28 06:08:47;;;;;;;3.22;1.50;;;;;;;10.14;73.17;97950.25;5105646;28;20051;-76
2023/10/28 06:11:14;;;;;;;2.70;1.90;;;;;;;9.92;72.93;97914.81;5105351;28;20050;-75
2023/10/28 06:13:43;;;;;;;2.80;1.40;;;;;;;10.16;72.22;97948.34;5104382;28;20040;-75
2023/10/28 06:16:10;;;;;;;2.50;1.33;;;;;;;10.18;72.57;97952.56;5104390;28;20315;-76
2023/10/28 06:18:37;;;;;;;5.72;1.50;;;;;;;10.18;72.96;97957.84;5105184;28;20040;-76
2023/10/28 06:21:04;;;;;;;2.17;1.35;;;;;;;10.19;72.86;97956.03;5105721;28;20044;-76
2023/10/28 06:23:31;;;;;;;2.40;1.70;;;;;;;10.21;72.83;97964.72;5104262;28;20040;-76
2023/10/28 06:25:58;;;;;;;3.85;1.70;;;;;;;10.03;71.99;97936.97;5104315;28;20040;-76
2023/10/28 06:28:25;;;;;;;2.13;1.40;;;;;;;10.03;72.25;97929.88;5105484;28;20039;-75
2023/10/28 06:30:53;;;;;;;2.28;1.52;;;;;;;10.24;72.79;97969.78;5087370;28;20316;-76
2023/10/28 06:33:20;;;;;;;2.60;1.60;;;;;;;10.25;73.45;97972.31;5104195;28;20044;-76
2023/10/28 06:35:47;;;;;;;2.90;1.60;;;;;;;10.26;72.33;97973.16;5138689;28;20044;-76
2023/10/28 06:38:13;;;;;;;2.00;1.48;;;;;;;10.22;72.54;97975.19;5106063;28;20357;-75
2023/10/28 06:40:40;;;;;;;2.58;1.83;;;;;;;10.28;72.34;97974.72;5109154;28;20044;-75
2023/10/28 06:43:07;;;;;;;2.63;1.63;;;;;;;10.28;72.64;97972.06;5109094;28;20040;-76
2023/10/28 06:45:34;;;;;;;3.35;1.98;;;;;;;10.32;71.62;97970.03;5108611;28;20062;-76
2023/10/28 06:48:03;;;;;;;2.80;1.70;;;;;;;9.66;72.87;97865.66;5108935;28;20054;-76
2023/10/28 06:50:30;;;;;;;2.70;1.80;;;;;;;10.34;72.36;97986.66;5109025;28;20051;-76
2023/10/28 06:52:57;;;;;;;2.83;1.70;;;;;;;10.37;72.10;97990.88;5108397;28;20051;-76
2023/10/28 06:55:24;;;;;;;2.60;1.80;;;;;;;10.38;71.74;97981.97;5108323;28;20036;-76
2023/10/28 06:57:52;;;;;;;2.25;1.50;;;;;;;10.40;71.23;97995.94;5108380;28;20100;-76
2023/10/28 07:00:23;;;;;;;2.30;1.50;;;;;;;10.41;70.61;97989.69;5109154;28;20283;-76
2023/10/28 07:02:50;;;;;;;3.50;1.70;;;;;;;10.24;69.82;97959.19;5107679;28;20044;-76
2023/10/28 07:05:18;;;;;;;4.72;1.50;;;;;;;10.32;69.97;97971.84;5108207;28;20060;-75
2023/10/28 07:07:45;;;;;;;2.40;1.52;;;;;;;10.46;68.79;97991.03;5108511;28;20061;-76
2023/10/28 07:10:14;;;;;;;2.92;1.73;;;;;;;10.48;68.86;97994.41;5107398;28;20040;-76
2023/10/28 07:12:41;;;;;;;5.65;1.95;;;;;;;10.50;69.31;97999.56;5107300;28;20036;-76
2023/10/28 07:15:09;;;;;;;2.42;1.60;;;;;;;10.52;68.76;98001.16;5108346;28;20115;-76
2023/10/28 07:17:36;;;;;;;3.65;1.90;;;;;;;10.03;68.33;97929.88;5107886;28;20196;-76
2023/10/28 07:20:04;;;;;;;3.13;2.03;;;;;;;10.55;68.84;98011.50;5107170;28;20043;-76
2023/10/28 07:22:32;;;;;;;3.60;1.98;;;;;;;10.57;67.53;98009.59;5108123;28;20184;-76
2023/10/28 07:24:59;;;;;;;2.97;1.92;;;;;;;10.58;67.57;98013.94;5108461;28;20272;-76
2023/10/28 07:27:27;;;;;;;3.10;1.70;;;;;;;10.60;68.20;98035.84;5108058;28;20043;-76
2023/10/28 07:29:55;;;;;;;3.08;1.80;;;;;;;10.63;68.18;98018.03;5106334;28;20082;-76
2023/10/28 07:32:22;;;;;;;4.95;2.35;;;;;;;10.64;67.52;98022.38;5107829;28;20048;-76
2023/10/28 07:34:48;;;;;;;2.55;1.80;;;;;;;10.67;67.26;98035.38;5107803;28;20063;-76
2023/10/28 07:37:15;;;;;;;3.05;1.85;;;;;;;10.67;66.71;98016.84;5108004;28;20052;-76
2023/10/28 07:39:45;;;;;;;5.03;1.92;;;;;;;10.69;66.70;98033.47;5107822;28;20108;-76
2023/10/28 07:42:11;;;;;;;3.20;1.70;;;;;;;10.72;67.19;98017.31;5106677;28;20062;-76
2023/10/28 07:44:39;;;;;;;3.45;1.80;;;;;;;10.72;66.53;98027.94;5106601;28;20063;-76
2023/10/28 07:47:07;;;;;;;2.75;1.60;;;;;;;10.74;65.54;98015.41;5107703;28;20295;-76
2023/10/28 07:49:34;;;;;;;3.47;1.80;;;;;;;10.74;66.24;98012.75;5106636;28;20046;-76
2023/10/28 07:52:01;;;;;;;2.90;1.80;;;;;;;10.76;67.43;98021.44;5107647;28;20048;-76
2023/10/28 07:54:28;;;;;;;4.15;2.00;;;;;;;10.14;66.02;97919.31;5107471;28;20035;-76
2023/10/28 07:56:56;;;;;;;3.83;2.10;;;;;;;10.76;66.55;98027.56;5107405;28;20044;-76
2023/10/28 07:59:23;;;;;;;3.70;1.95;;;;;;;10.78;65.49;98035.44;5107467;28;20052;-76
2023/10/28 08:01:51;;;;;;;3.70;2.20;;;;;;;10.78;65.66;98033.63;5140733;27;20047;-76
2023/10/28 08:04:18;;;;;;;3.33;2.10;;;;;;;10.63;65.33;98018.03;5107467;28;20040;-76
2023/10/28 08:06:45;;;;;;;4.43;2.00;;;;;;;10.81;64.67;98051.94;5106801;28;20052;-76
2023/10/28 08:09:12;;;;;;;3.15;2.00;;;;;;;10.60;65.37;98017.31;5106807;28;20044;-76
2023/10/28 08:11:40;;;;;;;2.78;1.60;;;;;;;10.21;64.08;97952.31;5105697;28;20055;-76
2023/10/28 08:14:08;;;;;;;2.67;1.70;;;;;;;10.86;64.67;98062.19;5107078;28;20074;-76
2023/10/28 08:16:35;;;;;;;3.00;1.52;;;;;;;10.85;64.63;98055.22;5105732;28;20358;-76
2023/10/28 08:19:03;;;;;;;4.32;1.83;;;;;;;10.87;65.51;98059.44;5106458;28;20047;-76
2023/10/28 08:21:31;;;;;;;3.25;1.60;;;;;;;10.87;64.19;98055.94;5106738;28;20093;-76
2023/10/28 08:23:57;;;;;;;3.10;1.73;;;;;;;10.89;63.46;98059.31;5106512;28;20052;-76
2023/10/28 08:26:25;;;;;;;3.33;2.22;;;;;;;10.92;63.76;98056.41;5106797;28;20043;-76
2023/10/28 08:28:52;;;;;;;3.58;1.85;;;;;;;10.94;63.77;98067.75;5106673;28;20181;-76
2023/10/28 08:31:22;;;;;;;3.53;1.65;;;;;;;10.94;63.88;98065.09;5106292;28;20062;-76
2023/10/28 08:33:50;;;;;;;3.00;1.75;;;;;;;10.96;63.38;98076.44;5139721;27;20097;-76
2023/10/28 08:36:17;;;;;;;3.05;1.90;;;;;;;10.99;62.73;98078.00;5106505;28;20040;-76
2023/10/28 08:38:44;;;;;;;3.60;1.83;;;;;;;10.15;62.57;97955.44;5105997;28;20093;-75
2023/10/28 08:41:13;;;;;;;3.63;1.80;;;;;;;11.00;62.53;98085.84;5106228;28;20036;-76
2023/10/28 08:43:42;;;;;;;3.53;1.70;;;;;;;10.81;63.77;98056.41;5105697;28;20044;-76
2023/10/28 08:46:09;;;;;;;3.03;1.60;;;;;;;11.04;63.41;98089.94;5106272;28;20248;-77
2023/10/28 08:48:39;;;;;;;3.88;1.77;;;;;;;11.06;62.29;98097.78;5106529;28;20342;-76
2023/10/28 08:51:09;;;;;;;3.95;1.83;;;;;;;11.08;62.83;98096.69;5106104;28;20054;-76
2023/10/28 08:53:37;;;;;;;2.83;1.70;;;;;;;11.12;62.75;98099.94;5105375;28;20081;-77
2023/10/28 08:56:05;;;;;;;3.67;1.92;;;;;;;11.13;62.18;98102.50;5106350;28;20036;-77
2023/10/28 08:58:32;;;;;;;2.80;1.70;;;;;;;10.52;62.35;98006.44;5106242;28;20048;-76
2023/10/28 09:01:01;;;;;;;3.42;1.50;;;;;;;11.20;61.81;98103.69;5105846;28;20058;-76
2023/10/28 09:03:30;;;;;;;2.97;1.75;;;;;;;11.22;62.78;98112.38;5105896;28;20280;-76
2023/10/28 09:05:59;;;;;;;3.72;1.70;;;;;;;11.22;62.72;98112.38;5106252;28;20048;-76
2023/10/28 09:08:27;;;;;;;5.32;2.10;;;;;;;11.22;61.51;98111.53;5104873;28;20044;-76
2023/10/28 09:10:56;;;;;;;2.83;1.88;;;;;;;11.25;62.86;98106.00;5106151;28;20048;-77
2023/10/28 09:13:23;;;;;;;5.00;2.00;;;;;;;7.78;62.40;97535.31;5106077;28;20048;-76
2023/10/28 09:15:51;;;;;;;2.15;1.67;;;;;;;11.29;62.16;98115.41;5105006;28;20119;-76
2023/10/28 09:18:18;;;;;;;5.07;1.92;;;;;;;11.32;63.15;98117.81;5105608;28;20247;-77
2023/10/28 09:20:46;;;;;;;3.08;2.20;;;;;;;11.05;63.05;98072.22;5104843;28;20043;-77
2023/10/28 09:23:14;;;;;;;3.33;1.92;;;;;;;11.34;63.48;98112.41;5104801;28;20215;-77
2023/10/28 09:25:41;;;;;;;6.03;2.50;;;;;;;11.13;62.62;98104.28;5104810;28;20196;-76
2023/10/28 09:28:16;;;;;;;3.13;2.10;;;;;;;10.65;62.93;98010.81;5105076;28;20055;-77
2023/10/28 09:30:46;;;;;;;4.25;2.20;;;;;;;10.72;63.00;98030.56;5104464;28;20074;-77
2023/10/28 09:33:14;;;;;;;3.58;2.20;;;;;;;11.37;62.63;98122.78;5104505;28;20063;-77
2023/10/28 09:35:43;;;;;;;4.13;2.10;;;;;;;11.24;63.11;98101.66;5104988;28;20040;-76
2023/10/28 09:38:11;;;;;;;4.13;2.00;;;;;;;11.39;62.34;98180.03;5105529;28;20043;-76
2023/10/28 09:40:39;;;;;;;3.33;2.05;;;;;;;11.42;62.42;98128.56;5105878;28;20111;-76
2023/10/28 09:43:07;;;;;;;4.57;2.33;;;;;;;11.47;62.48;98132.53;5105787;28;20050;-76
2023/10/28 09:45:35;;;;;;;3.47;2.20;;;;;;;11.31;62.57;98096.72;5105694;28;20288;-76
2023/10/28 09:48:12;;;;;;;2.92;1.75;;;;;;;11.51;62.42;98130.50;5104496;28;20119;-76
2023/10/28 09:50:48;;;;;;;4.00;2.22;;;;;;;11.53;61.95;98128.56;5104664;28;20048;-76
2023/10/28 09:53:18;;;;;;;4.38;2.22;;;;;;;11.54;61.09;98139.06;5105016;28;20051;-76
2023/10/28 09:55:49;;;;;;;5.57;2.13;;;;;;;11.57;62.59;98132.66;5104411;28;20043;-76
2023/10/28 09:58:22;;;;;;;3.55;1.80;;;;;;;11.60;61.06;98131.59;5105242;28;20052;-76
2023/10/28 10:00:51;;;;;;;3.72;2.08;;;;;;;11.62;61.53;98127.84;5105429;28;20102;-76
2023/10/28 10:03:31;;;;;;;3.78;2.20;;;;;;;11.64;61.90;98125.91;5104895;28;20048;-76
2023/10/28 10:05:58;;;;;;;3.38;1.85;;;;;;;11.64;60.90;98131.22;5105198;28;20040;-76
2023/10/28 10:08:25;;;;;;;5.03;2.20;;;;;;;11.70;60.86;98117.47;5104296;28;20054;-76
2023/10/28 10:10:55;;;;;;;3.50;2.13;;;;;;;11.76;60.92;98119.63;5104365;28;20040;-76
2023/10/28 10:13:23;;;;;;;4.18;2.10;;;;;;;11.57;61.86;98074.28;5107347;28;20153;-76
2023/10/28 10:15:56;;;;;;;5.22;2.42;;;;;;;11.84;60.79;98097.78;5108091;28;20044;-77
2023/10/28 10:18:32;;;;;;;3.85;2.08;;;;;;;11.49;59.71;98039.56;5108932;28;20372;-77
2023/10/28 10:21:09;;;;;;;3.20;2.17;;;;;;;11.94;60.20;98103.19;5109193;28;20044;-77
2023/10/28 10:23:42;;;;;;;3.28;1.90;;;;;;;12.12;59.99;98093.78;5109574;28;20050;-77
2023/10/28 10:26:20;;;;;;;3.83;2.03;;;;;;;11.50;59.11;97986.38;5109470;28;20044;-76
2023/10/28 10:28:47;;;;;;;2.88;1.85;;;;;;;12.12;59.60;98094.63;5108501;28;20068;-77
2023/10/28 10:31:25;;;;;;;3.05;1.75;;;;;;;12.10;59.05;98095.72;5109208;28;20117;-78
2023/10/28 10:34:07;;;;;;;2.83;1.88;;;;;;;12.15;59.18;98093.53;5108133;28;20240;-77
2023/10/28 10:36:40;;;;;;;4.20;1.70;;;;;;;12.14;58.21;98094.50;5108692;28;20050;-77
2023/10/28 10:39:15;;;;;;;3.55;2.03;;;;;;;12.16;58.59;98097.88;5108598;28;20118;-77
2023/10/28 10:41:44;;;;;;;2.70;1.88;;;;;;;12.23;57.85;98088.47;5108444;28;20044;-77
2023/10/28 10:44:34;;;;;;;3.38;2.35;;;;;;;12.28;58.17;98091.59;5108613;28;20032;-77
2023/10/28 10:47:02;;;;;;;4.32;2.03;;;;;;;12.34;57.98;98085.78;5108548;28;20115;-77
2023/10/28 10:49:30;;;;;;;3.10;1.85;;;;;;;12.32;57.71;98070.94;5107715;28;20195;-77
2023/10/28 10:51:59;;;;;;;4.40;1.52;;;;;;;12.29;56.13;98029.53;5108401;27;20044;-77
2023/10/28 10:54:30;;;;;;;5.30;1.77;;;;;;;12.80;55.96;98087.25;5108167;28;20048;-77
2023/10/28 10:56:58;;;;;;;4.47;2.28;;;;;;;12.89;56.08;98085.63;5107163;28;20040;-77
2023/10/28 10:59:25;;;;;;;2.63;1.60;;;;;;;12.74;55.25;98037.25;5108463;28;20109;-77
2023/10/28 11:01:53;;;;;;;2.50;1.35;;;;;;;12.90;54.79;98026.16;5107090;28;20044;-77
2023/10/28 11:04:20;;;;;;;2.25;1.58;;;;;;;13.26;54.86;98054.91;5108356;28;20310;-77
2023/10/28 11:06:47;;;;;;;2.33;1.67;;;;;;;13.50;55.24;98081.25;5107932;28;20312;-77
2023/10/28 11:09:15;;;;;;;3.30;1.63;;;;;;;13.46;53.96;98063.84;5106933;28;20040;-76
2023/10/28 11:11:42;;;;;;;2.88;1.50;;;;;;;13.46;54.36;98053.22;5108307;28;20052;-77
2023/10/28 11:14:12;;;;;;;2.90;1.80;;;;;;;13.42;53.90;98035.84;5106650;28;20052;-77
2023/10/28 11:16:39;;;;;;;4.63;1.67;;;;;;;13.81;53.47;98082.06;5107752;28;20149;-77
2023/10/28 11:19:07;;;;;;;3.00;1.50;;;;;;;13.99;52.47;98076.91;5108043;28;20059;-76
2023/10/28 11:21:34;;;;;;;3.45;1.92;;;;;;;14.09;52.55;98083.09;5107883;28;20200;-76
2023/10/28 11:24:03;;;;;;;2.72;1.67;;;;;;;14.10;52.17;98079.47;5089511;28;20044;-77
2023/10/28 11:26:30;;;;;;;3.55;1.92;;;;;;;13.73;52.63;98021.50;5106984;28;20115;-76
2023/10/28 11:29:01;;;;;;;4.15;1.50;;;;;;;14.02;52.03;98052.66;5107539;28;20093;-76
2023/10/28 11:31:31;;;;;;;5.60;2.13;;;;;;;14.32;53.23;98092.53;5106056;28;20054;-77
2023/10/28 11:34:01;;;;;;;4.55;2.35;;;;;;;14.44;52.17;98104.75;5107334;28;20051;-78
2023/10/28 11:36:30;;;;;;;5.43;2.88;;;;;;;14.52;51.89;98098.72;5106950;28;20166;-78